createdAt,value
2018-08-27T00:00:01.552Z,13.2
2018-08-27T00:01:00.893Z,13.2
2018-08-27T00:02:00.219Z,13.2
2018-08-27T00:02:59.055Z,13.2
2018-08-27T00:03:58.281Z,13.2
2018-08-27T00:04:57.653Z,13.1
2018-08-27T00:05:57.105Z,13.1
2018-08-27T00:06:56.328Z,13.1
2018-08-27T00:07:55.663Z,13.1
2018-08-27T00:08:54.496Z,13.1
2018-08-27T00:09:53.609Z,13.1
2018-08-27T00:10:53.343Z,13.1
2018-08-27T00:11:52.670Z,13
2018-08-27T00:12:51.342Z,13
2018-08-27T00:13:51.079Z,13
2018-08-27T00:14:49.902Z,13
2018-08-27T00:15:49.251Z,13
2018-08-27T00:16:48.693Z,13
2018-08-27T00:17:47.811Z,13
2018-08-27T00:18:47.041Z,13
2018-08-27T00:19:46.271Z,13
2018-08-27T00:20:45.605Z,13
2018-08-27T00:21:44.826Z,13
2018-08-27T00:22:44.045Z,13
2018-08-27T00:23:43.171Z,12.9
2018-08-27T00:24:42.294Z,12.9
2018-08-27T00:26:40.802Z,12.9
2018-08-27T00:27:40.034Z,12.9
2018-08-27T00:28:39.363Z,12.9
2018-08-27T00:29:38.695Z,12.8
2018-08-27T00:30:38.136Z,12.8
2018-08-27T00:31:36.744Z,12.8
2018-08-27T00:32:36.078Z,12.8
2018-08-27T00:33:35.418Z,12.7
2018-08-27T00:34:34.751Z,12.7
2018-08-27T00:36:32.863Z,12.7
2018-08-27T00:37:32.479Z,12.7
2018-08-27T00:38:31.707Z,12.7
2018-08-27T00:39:31.168Z,12.6
2018-08-27T00:40:29.998Z,12.6
2018-08-27T00:41:00.535Z,12.6
2018-08-27T00:41:31.180Z,12.6
2018-08-27T00:42:01.613Z,12.6
2018-08-27T00:43:27.408Z,12.6
2018-08-27T00:44:26.525Z,12.6
2018-08-27T00:45:26.154Z,12.6
2018-08-27T00:46:25.380Z,12.6
2018-08-27T00:47:24.710Z,12.6
2018-08-27T00:48:23.832Z,12.6
2018-08-27T00:49:23.057Z,12.6
2018-08-27T00:50:22.169Z,12.6
2018-08-27T00:50:52.928Z,12.6
2018-08-27T00:51:22.961Z,12.6
2018-08-27T00:51:53.397Z,12.6
2018-08-27T00:52:23.834Z,12.6
2018-08-27T00:52:54.590Z,12.6
2018-08-27T00:54:18.882Z,12.6
2018-08-27T00:55:18.108Z,12.6
2018-08-27T00:56:17.330Z,12.7
2018-08-27T00:57:16.776Z,12.7
2018-08-27T00:58:16.104Z,12.7
2018-08-27T00:59:15.543Z,12.8
2018-08-27T01:00:14.881Z,12.8
2018-08-27T01:01:13.610Z,12.8
2018-08-27T01:02:12.941Z,12.8
2018-08-27T01:03:12.209Z,12.8
2018-08-27T01:04:11.325Z,12.8
2018-08-27T01:05:10.663Z,12.8
2018-08-27T01:06:09.901Z,12.9
2018-08-27T01:07:09.027Z,12.9
2018-08-27T01:08:08.362Z,12.9
2018-08-27T01:09:07.814Z,12.9
2018-08-27T01:10:06.639Z,12.9
2018-08-27T01:11:05.758Z,12.9
2018-08-27T01:12:04.987Z,12.9
2018-08-27T01:13:04.324Z,12.9
2018-08-27T01:14:03.442Z,12.9
2018-08-27T01:15:02.781Z,12.9
2018-08-27T01:16:01.923Z,13
2018-08-27T01:17:01.266Z,13
2018-08-27T01:18:00.379Z,13.1
2018-08-27T01:18:59.747Z,13.1
2018-08-27T01:19:58.846Z,13.1
2018-08-27T01:20:58.180Z,13.1
2018-08-27T01:21:57.609Z,13.2
2018-08-27T01:22:56.944Z,13.2
2018-08-27T01:23:55.763Z,13.2
2018-08-27T01:24:55.104Z,13.2
2018-08-27T01:25:54.427Z,13.2
2018-08-27T01:26:53.762Z,13.3
2018-08-27T01:27:53.091Z,13.3
2018-08-27T01:28:51.707Z,13.3
2018-08-27T01:29:51.443Z,13.3
2018-08-27T01:30:50.898Z,13.3
2018-08-27T01:31:20.936Z,13.3
2018-08-27T01:31:51.367Z,13.3
2018-08-27T01:32:22.014Z,13.3
2018-08-27T01:32:52.663Z,13.3
2018-08-27T01:33:23.110Z,13.3
2018-08-27T01:33:53.642Z,13.2
2018-08-27T01:34:24.396Z,13.2
2018-08-27T01:35:46.557Z,13.2
2018-08-27T01:36:45.775Z,13.2
2018-08-27T01:37:45.000Z,13.2
2018-08-27T01:38:44.225Z,13.2
2018-08-27T01:39:43.667Z,13.2
2018-08-27T01:41:41.675Z,13.1
2018-08-27T01:42:41.201Z,13.1
2018-08-27T01:43:40.654Z,13.1
2018-08-27T01:44:10.696Z,13.1
2018-08-27T01:44:41.128Z,13.1
2018-08-27T01:45:39.085Z,13
2018-08-27T01:47:37.192Z,13
2018-08-27T01:48:37.038Z,12.9
2018-08-27T01:49:35.765Z,12.9
2018-08-27T01:50:34.987Z,12.9
2018-08-27T01:51:34.213Z,12.8
2018-08-27T01:52:33.431Z,12.8
2018-08-27T01:53:32.549Z,12.8
2018-08-27T01:54:32.175Z,12.8
2018-08-27T01:55:31.515Z,12.7
2018-08-27T01:56:30.442Z,12.7
2018-08-27T01:57:29.676Z,12.7
2018-08-27T01:58:28.932Z,12.7
2018-08-27T01:59:28.065Z,12.6
2018-08-27T02:00:27.403Z,12.6
2018-08-27T02:01:26.516Z,12.5
2018-08-27T02:02:25.740Z,12.5
2018-08-27T02:03:24.967Z,12.5
2018-08-27T02:04:24.328Z,12.5
2018-08-27T02:05:23.660Z,12.5
2018-08-27T02:06:23.048Z,12.5
2018-08-27T02:07:21.765Z,12.4
2018-08-27T02:08:20.879Z,12.4
2018-08-27T02:09:19.997Z,12.4
2018-08-27T02:10:19.617Z,12.4
2018-08-27T02:11:18.948Z,12.4
2018-08-27T02:12:18.286Z,12.4
2018-08-27T02:13:17.020Z,12.3
2018-08-27T02:13:47.667Z,12.3
2018-08-27T02:14:18.208Z,12.3
2018-08-27T02:15:15.920Z,12.3
2018-08-27T02:16:14.849Z,12.3
2018-08-27T02:17:14.288Z,12.3
2018-08-27T02:18:13.615Z,12.3
2018-08-27T02:19:12.839Z,12.3
2018-08-27T02:20:11.354Z,12.3
2018-08-27T02:21:10.983Z,12.3
2018-08-27T02:22:10.321Z,12.3
2018-08-27T02:23:09.735Z,12.3
2018-08-27T02:24:08.557Z,12.3
2018-08-27T02:25:07.791Z,12.3
2018-08-27T02:26:07.138Z,12.3
2018-08-27T02:27:06.482Z,12.3
2018-08-27T02:28:05.418Z,12.3
2018-08-27T02:28:35.564Z,12.3
2018-08-27T02:29:06.209Z,12.3
2018-08-27T02:29:36.349Z,12.3
2018-08-27T02:30:06.892Z,12.4
2018-08-27T02:30:37.445Z,12.4
2018-08-27T02:31:07.999Z,12.4
2018-08-27T02:32:02.083Z,12.4
2018-08-27T02:33:01.603Z,12.4
2018-08-27T02:34:00.719Z,12.3
2018-08-27T02:35:00.308Z,12.4
2018-08-27T02:35:59.256Z,12.3
2018-08-27T02:36:58.591Z,12.4
2018-08-27T02:37:57.819Z,12.4
2018-08-27T02:38:57.047Z,12.4
2018-08-27T02:39:56.409Z,12.4
2018-08-27T02:40:55.028Z,12.4
2018-08-27T02:41:54.868Z,12.5
2018-08-27T02:42:53.488Z,12.5
2018-08-27T02:43:52.827Z,12.5
2018-08-27T02:44:52.277Z,12.5
2018-08-27T02:45:51.725Z,12.5
2018-08-27T02:46:50.459Z,12.5
2018-08-27T02:47:49.471Z,12.5
2018-08-27T02:48:49.298Z,12.4
2018-08-27T02:49:48.020Z,12.4
2018-08-27T02:50:47.539Z,12.4
2018-08-27T02:51:46.871Z,12.4
2018-08-27T02:52:46.005Z,12.4
2018-08-27T02:53:45.027Z,12.4
2018-08-27T02:54:44.146Z,12.4
2018-08-27T02:55:43.488Z,12.4
2018-08-27T02:56:42.600Z,12.5
2018-08-27T02:57:41.940Z,12.4
2018-08-27T02:58:12.690Z,12.4
2018-08-27T02:58:42.616Z,12.4
2018-08-27T02:59:13.369Z,12.4
2018-08-27T02:59:43.398Z,12.4
2018-08-27T03:00:13.884Z,12.4
2018-08-27T03:00:44.209Z,12.4
2018-08-27T03:01:39.008Z,12.5
2018-08-27T03:02:38.348Z,12.5
2018-08-27T03:03:37.753Z,12.5
2018-08-27T03:04:36.590Z,12.4
2018-08-27T03:05:35.713Z,12.4
2018-08-27T03:06:34.935Z,12.4
2018-08-27T03:07:34.157Z,12.4
2018-08-27T03:08:04.808Z,12.4
2018-08-27T03:08:35.449Z,12.4
2018-08-27T03:09:06.116Z,12.4
2018-08-27T03:09:36.872Z,12.4
2018-08-27T03:10:07.522Z,12.4
2018-08-27T03:10:37.663Z,12.4
2018-08-27T03:11:08.305Z,12.4
2018-08-27T03:11:39.055Z,12.4
2018-08-27T03:12:09.115Z,12.4
2018-08-27T03:13:29.475Z,12.4
2018-08-27T03:14:28.831Z,12.4
2018-08-27T03:15:28.275Z,12.5
2018-08-27T03:16:27.273Z,12.5
2018-08-27T03:17:26.612Z,12.5
2018-08-27T03:18:25.535Z,12.5
2018-08-27T03:19:25.041Z,12.5
2018-08-27T03:19:55.420Z,12.5
2018-08-27T03:21:23.552Z,12.4
2018-08-27T03:21:53.711Z,12.4
2018-08-27T03:23:21.618Z,12.4
2018-08-27T03:24:21.059Z,12.4
2018-08-27T03:25:20.010Z,12.4
2018-08-27T03:26:19.240Z,12.4
2018-08-27T03:27:18.363Z,12.4
2018-08-27T03:28:17.494Z,12.4
2018-08-27T03:29:16.821Z,12.4
2018-08-27T03:30:16.058Z,12.4
2018-08-27T03:31:15.399Z,12.4
2018-08-27T03:32:14.781Z,12.4
2018-08-27T03:33:13.743Z,12.4
2018-08-27T03:34:12.850Z,12.4
2018-08-27T03:35:11.758Z,12.4
2018-08-27T03:36:11.614Z,12.5
2018-08-27T03:37:11.001Z,12.5
2018-08-27T03:38:09.622Z,12.5
2018-08-27T03:39:08.950Z,12.5
2018-08-27T03:40:07.968Z,12.5
2018-08-27T03:41:07.696Z,12.5
2018-08-27T03:42:06.932Z,12.6
2018-08-27T03:43:05.655Z,12.6
2018-08-27T03:44:04.892Z,12.6
2018-08-27T03:45:04.543Z,12.6
2018-08-27T03:46:03.996Z,12.6
2018-08-27T03:47:02.494Z,12.6
2018-08-27T03:48:01.865Z,12.6
2018-08-27T03:49:01.104Z,12.6
2018-08-27T03:50:00.436Z,12.6
2018-08-27T03:50:31.019Z,12.6
2018-08-27T03:51:01.681Z,12.6
2018-08-27T03:51:32.103Z,12.6
2018-08-27T03:52:58.127Z,12.7
2018-08-27T03:53:57.354Z,12.7
2018-08-27T03:54:56.740Z,12.7
2018-08-27T03:55:55.463Z,12.7
2018-08-27T03:56:54.689Z,12.7
2018-08-27T03:57:53.912Z,12.7
2018-08-27T03:58:53.142Z,12.7
2018-08-27T03:59:52.368Z,12.7
2018-08-27T04:00:51.804Z,12.7
2018-08-27T04:01:21.854Z,12.7
2018-08-27T04:01:52.185Z,12.7
2018-08-27T04:02:22.834Z,12.7
2018-08-27T04:02:53.468Z,12.7
2018-08-27T04:03:49.672Z,12.7
2018-08-27T04:04:49.009Z,12.8
2018-08-27T04:05:47.625Z,12.8
2018-08-27T04:06:46.968Z,12.8
2018-08-27T04:07:46.190Z,12.8
2018-08-27T04:08:45.515Z,12.8
2018-08-27T04:09:44.637Z,12.8
2018-08-27T04:10:43.966Z,12.8
2018-08-27T04:11:43.086Z,12.8
2018-08-27T04:12:42.303Z,12.8
2018-08-27T04:13:41.324Z,12.8
2018-08-27T04:14:41.054Z,12.8
2018-08-27T04:15:40.277Z,12.8
2018-08-27T04:16:39.409Z,12.8
2018-08-27T04:17:38.644Z,12.8
2018-08-27T04:18:37.869Z,12.8
2018-08-27T04:19:37.203Z,12.8
2018-08-27T04:20:35.930Z,12.8
2018-08-27T04:21:35.776Z,12.8
2018-08-27T04:22:34.510Z,12.8
2018-08-27T04:23:33.851Z,12.8
2018-08-27T04:24:33.188Z,12.8
2018-08-27T04:25:32.632Z,12.8
2018-08-27T04:26:31.248Z,12.8
2018-08-27T04:27:30.608Z,12.8
2018-08-27T04:28:29.936Z,12.8
2018-08-27T04:29:29.267Z,12.8
2018-08-27T04:30:28.498Z,12.8
2018-08-27T04:31:27.720Z,12.8
2018-08-27T04:32:27.050Z,12.8
2018-08-27T04:33:26.389Z,12.8
2018-08-27T04:35:24.606Z,12.8
2018-08-27T04:36:23.939Z,12.8
2018-08-27T04:37:23.284Z,12.8
2018-08-27T04:38:22.257Z,12.8
2018-08-27T04:39:21.492Z,12.8
2018-08-27T04:40:20.721Z,12.8
2018-08-27T04:41:19.947Z,12.8
2018-08-27T04:42:19.271Z,12.8
2018-08-27T04:44:17.408Z,12.8
2018-08-27T04:46:16.128Z,12.8
2018-08-27T04:46:46.778Z,12.8
2018-08-27T04:47:17.203Z,12.7
2018-08-27T04:47:47.762Z,12.7
2018-08-27T04:49:13.553Z,12.7
2018-08-27T04:50:12.788Z,12.7
2018-08-27T04:51:12.258Z,12.7
2018-08-27T04:54:09.977Z,12.7
2018-08-27T04:55:08.823Z,12.7
2018-08-27T04:57:07.650Z,12.7
2018-08-27T04:58:06.758Z,12.7
2018-08-27T05:06:00.711Z,12.8
2018-08-27T05:06:59.931Z,12.8
2018-08-27T05:08:58.040Z,12.9
2018-08-27T05:13:54.424Z,13
2018-08-27T05:14:53.657Z,13
2018-08-27T05:15:52.629Z,13.1
2018-08-27T05:20:49.121Z,13.2
2018-08-27T05:22:47.020Z,13.2
2018-08-27T05:24:45.734Z,13.3
2018-08-27T05:26:44.054Z,13.2
2018-08-27T05:27:14.303Z,13.2
2018-08-27T05:29:41.753Z,13.3
2018-08-27T05:30:41.695Z,13.3
2018-08-27T05:31:40.209Z,13.3
2018-08-27T05:32:39.535Z,13.3
2018-08-27T05:33:38.873Z,13.3
2018-08-27T05:34:37.800Z,13.3
2018-08-27T05:35:37.147Z,13.3
2018-08-27T05:36:36.300Z,13.3
2018-08-27T05:37:06.854Z,13.3
2018-08-27T05:37:37.631Z,13.3
2018-08-27T05:38:08.534Z,13.3
2018-08-27T05:38:38.969Z,13.4
2018-08-27T05:39:09.073Z,13.4
2018-08-27T05:39:39.607Z,13.4
2018-08-27T05:40:09.945Z,13.4
2018-08-27T05:42:31.709Z,13.5
2018-08-27T05:44:30.989Z,13.5
2018-08-27T05:45:29.266Z,13.6
2018-08-27T05:46:28.504Z,13.6
2018-08-27T05:47:27.516Z,13.6
2018-08-27T05:48:27.292Z,13.7
2018-08-27T05:50:25.422Z,13.8
2018-08-27T05:51:24.538Z,13.9
2018-08-27T05:52:24.932Z,13.9
2018-08-27T05:53:23.040Z,14
2018-08-27T05:55:21.658Z,14.2
2018-08-27T05:56:20.881Z,14.2
2018-08-27T05:57:20.334Z,14.3
2018-08-27T05:58:19.554Z,14.3
2018-08-27T05:59:18.782Z,14.4
2018-08-27T06:00:17.894Z,14.4
2018-08-27T06:01:17.346Z,14.5
2018-08-27T06:02:16.570Z,14.5
2018-08-27T06:03:15.683Z,14.5
2018-08-27T06:04:14.908Z,14.5
2018-08-27T06:06:13.315Z,14.6
2018-08-27T06:08:12.038Z,14.7
2018-08-27T06:11:10.456Z,14.7
2018-08-27T06:12:09.166Z,14.7
2018-08-27T06:18:04.437Z,14.9
2018-08-27T06:20:02.446Z,15
2018-08-27T06:21:02.389Z,15
2018-08-27T06:23:00.611Z,15.1
2018-08-27T06:23:59.838Z,15.1
2018-08-27T06:24:30.157Z,15.1
2018-08-27T06:25:01.193Z,15.1
2018-08-27T06:25:58.514Z,15.1
2018-08-27T06:26:57.860Z,15.2
2018-08-27T06:27:56.610Z,15.2
2018-08-27T06:29:55.114Z,15.2
2018-08-27T06:30:54.842Z,15.2
2018-08-27T06:31:53.959Z,15.3
2018-08-27T06:32:53.174Z,15.3
2018-08-27T06:33:52.411Z,15.3
2018-08-27T06:34:51.426Z,15.3
2018-08-27T06:35:50.765Z,15.3
2018-08-27T06:36:49.889Z,15.4
2018-08-27T06:39:48.004Z,15.5
2018-08-27T06:40:47.343Z,15.5
2018-08-27T06:41:46.673Z,15.6
2018-08-27T06:42:45.901Z,15.6
2018-08-27T06:43:45.343Z,15.6
2018-08-27T06:44:44.178Z,15.7
2018-08-27T06:45:43.509Z,15.8
2018-08-27T06:46:42.851Z,15.9
2018-08-27T06:47:42.332Z,15.9
2018-08-27T06:48:41.589Z,16
2018-08-27T06:49:41.038Z,16
2018-08-27T06:50:39.775Z,16.1
2018-08-27T06:51:38.792Z,16.2
2018-08-27T06:52:38.729Z,16.2
2018-08-27T06:53:37.349Z,16.3
2018-08-27T06:54:37.189Z,16.3
2018-08-27T06:55:36.623Z,16.4
2018-08-27T06:56:35.638Z,16.4
2018-08-27T06:57:34.979Z,16.4
2018-08-27T06:58:34.315Z,16.5
2018-08-27T06:59:33.543Z,16.5
2018-08-27T07:00:32.878Z,16.6
2018-08-27T07:01:32.004Z,16.6
2018-08-27T07:02:31.252Z,16.7
2018-08-27T07:03:30.469Z,16.8
2018-08-27T07:04:01.110Z,16.8
2018-08-27T07:04:31.540Z,16.8
2018-08-27T07:05:02.099Z,16.8
2018-08-27T07:06:28.514Z,17
2018-08-27T07:07:27.793Z,17.1
2018-08-27T07:08:27.236Z,17.1
2018-08-27T07:09:25.769Z,17.2
2018-08-27T07:10:25.390Z,17.2
2018-08-27T07:11:24.621Z,17.3
2018-08-27T07:12:24.075Z,17.4
2018-08-27T07:13:23.514Z,17.4
2018-08-27T07:13:53.553Z,17.4
2018-08-27T07:15:22.078Z,17.5
2018-08-27T07:15:52.618Z,17.5
2018-08-27T07:16:23.262Z,17.5
2018-08-27T07:16:53.917Z,17.5
2018-08-27T07:18:20.033Z,17.6
2018-08-27T07:20:19.162Z,17.7
2018-08-27T07:21:17.662Z,17.8
2018-08-27T07:22:17.060Z,17.8
2018-08-27T07:23:16.499Z,17.8
2018-08-27T07:24:15.845Z,17.9
2018-08-27T07:25:15.071Z,17.9
2018-08-27T07:26:14.298Z,18
2018-08-27T07:27:13.521Z,18.1
2018-08-27T07:28:12.755Z,18.2
2018-08-27T07:29:12.205Z,18.2
2018-08-27T07:30:11.703Z,18.3
2018-08-27T07:31:10.926Z,18.4
2018-08-27T07:32:10.163Z,18.5
2018-08-27T07:33:09.384Z,18.5
2018-08-27T07:34:08.832Z,18.5
2018-08-27T07:35:08.158Z,18.6
2018-08-27T07:36:07.901Z,18.6
2018-08-27T07:37:06.661Z,18.7
2018-08-27T07:38:05.991Z,18.8
2018-08-27T07:39:05.008Z,18.8
2018-08-27T07:40:04.848Z,18.8
2018-08-27T07:41:04.172Z,18.9
2018-08-27T07:42:03.297Z,18.9
2018-08-27T07:43:02.200Z,18.9
2018-08-27T07:45:01.442Z,18.9
2018-08-27T07:46:00.557Z,18.9
2018-08-27T07:46:59.905Z,18.9
2018-08-27T07:47:30.338Z,18.9
2018-08-27T07:48:00.997Z,18.9
2018-08-27T07:48:58.924Z,19
2018-08-27T07:49:57.754Z,18.9
2018-08-27T07:50:57.484Z,19
2018-08-27T07:51:56.733Z,19
2018-08-27T07:52:56.182Z,19
2018-08-27T07:53:55.539Z,19
2018-08-27T07:54:54.766Z,19
2018-08-27T07:55:53.885Z,19
2018-08-27T07:56:53.116Z,19
2018-08-27T07:57:52.841Z,19.1
2018-08-27T07:58:23.568Z,19.1
2018-08-27T07:58:53.617Z,19.1
2018-08-27T07:59:51.455Z,19
2018-08-27T08:00:50.675Z,19
2018-08-27T08:01:50.011Z,19.1
2018-08-27T08:02:49.188Z,19
2018-08-27T08:03:48.909Z,19
2018-08-27T08:04:48.768Z,19
2018-08-27T08:05:47.601Z,19
2018-08-27T08:06:46.824Z,19
2018-08-27T08:07:45.948Z,19
2018-08-27T08:08:45.777Z,19
2018-08-27T08:09:44.901Z,19
2018-08-27T08:10:44.237Z,19
2018-08-27T08:11:43.581Z,19
2018-08-27T08:12:42.809Z,19
2018-08-27T08:14:41.414Z,19.1
2018-08-27T08:15:41.363Z,19.1
2018-08-27T08:16:40.082Z,19.1
2018-08-27T08:17:39.911Z,19.1
2018-08-27T08:18:39.036Z,19.1
2018-08-27T08:19:38.154Z,19
2018-08-27T08:20:38.095Z,19
2018-08-27T08:21:36.934Z,19
2018-08-27T08:22:36.063Z,19
2018-08-27T08:23:35.796Z,19
2018-08-27T08:24:35.025Z,19
2018-08-27T08:25:34.351Z,19
2018-08-27T08:26:33.737Z,18.9
2018-08-27T08:27:33.069Z,18.9
2018-08-27T08:28:32.309Z,18.9
2018-08-27T08:30:31.428Z,18.9
2018-08-27T08:31:30.770Z,18.8
2018-08-27T08:32:29.894Z,18.8
2018-08-27T08:33:29.522Z,18.7
2018-08-27T08:34:28.642Z,18.7
2018-08-27T08:35:27.870Z,18.7
2018-08-27T08:36:27.596Z,18.7
2018-08-27T08:37:26.826Z,18.7
2018-08-27T08:38:26.041Z,18.7
2018-08-27T08:39:25.190Z,18.7
2018-08-27T08:40:25.096Z,18.7
2018-08-27T08:41:24.434Z,18.7
2018-08-27T08:42:23.867Z,18.7
2018-08-27T08:43:22.883Z,18.7
2018-08-27T08:43:53.632Z,18.7
2018-08-27T08:44:23.765Z,18.8
2018-08-27T08:45:21.372Z,18.8
2018-08-27T08:46:21.216Z,18.8
2018-08-27T08:48:20.052Z,18.9
2018-08-27T08:49:19.275Z,18.9
2018-08-27T08:50:18.387Z,19
2018-08-27T08:51:17.723Z,19
2018-08-27T08:52:16.947Z,19
2018-08-27T08:53:16.850Z,19
2018-08-27T08:53:47.010Z,19
2018-08-27T08:54:17.657Z,19
2018-08-27T08:54:48.211Z,19
2018-08-27T08:56:14.837Z,19
2018-08-27T08:56:45.085Z,19
2018-08-27T08:57:15.126Z,19
2018-08-27T08:57:45.672Z,19
2018-08-27T08:59:12.470Z,19
2018-08-27T09:00:12.419Z,19
2018-08-27T09:01:11.761Z,19.1
2018-08-27T09:02:10.646Z,19.2
2018-08-27T09:03:10.284Z,19.2
2018-08-27T09:04:09.723Z,19.2
2018-08-27T09:05:09.160Z,19.3
2018-08-27T09:06:08.287Z,19.3
2018-08-27T09:07:07.401Z,19.4
2018-08-27T09:08:08.077Z,19.4
2018-08-27T09:09:07.383Z,19.4
2018-08-27T09:10:05.914Z,19.4
2018-08-27T09:11:05.034Z,19.4
2018-08-27T09:12:04.143Z,19.3
2018-08-27T09:13:03.980Z,19.4
2018-08-27T09:14:03.318Z,19.4
2018-08-27T09:15:02.686Z,19.4
2018-08-27T09:16:01.918Z,19.4
2018-08-27T09:17:01.454Z,19.4
2018-08-27T09:18:00.797Z,19.5
2018-08-27T09:19:00.022Z,19.5
2018-08-27T09:19:59.297Z,19.5
2018-08-27T09:20:58.629Z,19.5
2018-08-27T09:21:58.259Z,19.6
2018-08-27T09:22:57.589Z,19.6
2018-08-27T09:23:56.812Z,19.6
2018-08-27T09:24:55.939Z,19.6
2018-08-27T09:25:26.689Z,19.6
2018-08-27T09:25:56.948Z,19.7
2018-08-27T09:26:27.392Z,19.7
2018-08-27T09:26:57.710Z,19.7
2018-08-27T09:27:28.352Z,19.7
2018-08-27T09:27:58.895Z,19.8
2018-08-27T09:28:53.597Z,19.8
2018-08-27T09:29:53.329Z,19.8
2018-08-27T09:30:52.552Z,19.8
2018-08-27T09:31:51.670Z,19.8
2018-08-27T09:32:51.516Z,19.8
2018-08-27T09:33:50.742Z,19.8
2018-08-27T09:34:49.754Z,19.8
2018-08-27T09:35:49.477Z,19.8
2018-08-27T09:36:20.125Z,19.8
2018-08-27T09:36:51.102Z,19.8
2018-08-27T09:37:21.249Z,19.8
2018-08-27T09:37:51.911Z,19.8
2018-08-27T09:38:22.559Z,19.8
2018-08-27T09:38:53.219Z,19.8
2018-08-27T09:39:23.756Z,19.8
2018-08-27T09:40:46.237Z,19.8
2018-08-27T09:41:45.597Z,19.8
2018-08-27T09:42:44.820Z,19.8
2018-08-27T09:43:44.766Z,19.8
2018-08-27T09:44:43.995Z,19.8
2018-08-27T09:45:43.480Z,19.9
2018-08-27T09:46:42.859Z,19.9
2018-08-27T09:47:42.216Z,19.9
2018-08-27T09:48:12.761Z,19.9
2018-08-27T09:48:43.294Z,19.9
2018-08-27T09:49:13.951Z,19.9
2018-08-27T09:50:40.246Z,19.9
2018-08-27T09:51:39.367Z,19.9
2018-08-27T09:53:38.484Z,20
2018-08-27T09:54:37.504Z,20
2018-08-27T09:55:37.455Z,20
2018-08-27T09:56:36.291Z,20.1
2018-08-27T09:57:35.625Z,20.1
2018-08-27T09:58:35.942Z,20.1
2018-08-27T09:59:34.783Z,20.2
2018-08-27T10:00:34.124Z,20.2
2018-08-27T10:01:33.239Z,20.2
2018-08-27T10:02:32.978Z,20.2
2018-08-27T10:03:32.315Z,20.2
2018-08-27T10:04:31.653Z,20.3
2018-08-27T10:05:30.992Z,20.3
2018-08-27T10:06:30.435Z,20.3
2018-08-27T10:07:29.655Z,20.4
2018-08-27T10:08:28.782Z,20.4
2018-08-27T10:09:28.668Z,20.4
2018-08-27T10:10:28.003Z,20.5
2018-08-27T10:11:27.355Z,20.5
2018-08-27T10:12:26.581Z,20.5
2018-08-27T10:13:26.033Z,20.6
2018-08-27T10:14:25.044Z,20.6
2018-08-27T10:15:24.680Z,20.6
2018-08-27T10:16:24.017Z,20.6
2018-08-27T10:17:23.875Z,20.6
2018-08-27T10:18:23.114Z,20.6
2018-08-27T10:19:22.342Z,20.6
2018-08-27T10:20:22.169Z,20.6
2018-08-27T10:21:21.405Z,20.6
2018-08-27T10:22:21.890Z,20.7
2018-08-27T10:23:20.155Z,20.6
2018-08-27T10:24:19.391Z,20.7
2018-08-27T10:25:18.727Z,20.7
2018-08-27T10:26:18.161Z,20.7
2018-08-27T10:27:17.623Z,20.7
2018-08-27T10:28:16.977Z,20.7
2018-08-27T10:29:16.200Z,20.7
2018-08-27T10:30:15.940Z,20.8
2018-08-27T10:31:15.298Z,20.8
2018-08-27T10:32:14.427Z,20.8
2018-08-27T10:33:14.043Z,20.9
2018-08-27T10:34:13.164Z,21
2018-08-27T10:34:43.871Z,21
2018-08-27T10:35:14.031Z,21
2018-08-27T10:35:44.683Z,21
2018-08-27T10:36:14.825Z,21.1
2018-08-27T10:36:45.376Z,21.1
2018-08-27T10:38:10.775Z,21.3
2018-08-27T10:39:10.395Z,21.3
2018-08-27T10:40:09.623Z,21.4
2018-08-27T10:41:09.344Z,21.5
2018-08-27T10:42:08.673Z,21.5
2018-08-27T10:43:08.009Z,21.5
2018-08-27T10:44:07.251Z,21.5
2018-08-27T10:45:07.092Z,21.5
2018-08-27T10:46:06.316Z,21.5
2018-08-27T10:47:05.433Z,21.5
2018-08-27T10:48:05.393Z,21.5
2018-08-27T10:49:04.620Z,21.5
2018-08-27T10:50:03.931Z,21.5
2018-08-27T10:51:03.439Z,21.5
2018-08-27T10:52:02.565Z,21.6
2018-08-27T10:53:02.297Z,21.6
2018-08-27T10:54:01.524Z,21.7
2018-08-27T10:55:00.747Z,21.7
2018-08-27T10:56:00.585Z,21.8
2018-08-27T10:56:59.703Z,21.8
2018-08-27T10:57:59.218Z,21.9
2018-08-27T10:58:58.676Z,22
2018-08-27T10:59:58.122Z,22.1
2018-08-27T11:00:57.571Z,22.2
2018-08-27T11:01:56.901Z,22.2
2018-08-27T11:02:56.241Z,22.3
2018-08-27T11:03:56.228Z,22.4
2018-08-27T11:06:54.458Z,22.4
2018-08-27T11:07:53.579Z,22.5
2018-08-27T11:08:53.413Z,22.6
2018-08-27T11:09:52.638Z,22.7
2018-08-27T11:10:51.996Z,22.6
2018-08-27T11:11:51.329Z,22.5
2018-08-27T11:12:51.060Z,22.5
2018-08-27T11:13:50.078Z,22.5
2018-08-27T11:14:49.803Z,22.4
2018-08-27T11:15:49.075Z,22.3
2018-08-27T11:16:19.723Z,22.3
2018-08-27T11:16:50.375Z,22.2
2018-08-27T11:17:20.518Z,22.2
2018-08-27T11:17:51.178Z,22.2
2018-08-27T11:18:21.819Z,22.2
2018-08-27T11:18:52.262Z,22.1
2018-08-27T11:19:23.110Z,22.1
2018-08-27T11:19:54.229Z,22.1
2018-08-27T11:20:25.272Z,22.1
2018-08-27T11:21:45.806Z,21.9
2018-08-27T11:22:45.250Z,22
2018-08-27T11:23:44.478Z,22
2018-08-27T11:24:44.443Z,22
2018-08-27T11:25:43.559Z,22.1
2018-08-27T11:26:44.727Z,22.1
2018-08-27T11:27:42.648Z,22
2018-08-27T11:28:13.190Z,22
2018-08-27T11:28:43.728Z,21.9
2018-08-27T11:29:14.169Z,21.9
2018-08-27T11:29:44.975Z,22
2018-08-27T11:30:15.027Z,22
2018-08-27T11:31:40.533Z,22
2018-08-27T11:32:39.871Z,22
2018-08-27T11:34:38.486Z,21.9
2018-08-27T11:35:38.435Z,21.9
2018-08-27T11:36:37.556Z,21.8
2018-08-27T11:37:36.887Z,21.8
2018-08-27T11:38:36.111Z,21.8
2018-08-27T11:39:36.078Z,21.8
2018-08-27T11:41:34.803Z,21.7
2018-08-27T11:42:34.242Z,21.7
2018-08-27T11:43:34.148Z,21.7
2018-08-27T11:44:32.882Z,21.8
2018-08-27T11:45:32.725Z,21.8
2018-08-27T11:46:32.177Z,21.7
2018-08-27T11:48:30.798Z,21.8
2018-08-27T11:49:30.129Z,21.8
2018-08-27T11:50:30.291Z,21.8
2018-08-27T11:51:29.161Z,21.9
2018-08-27T11:52:28.641Z,21.9
2018-08-27T11:53:28.092Z,21.9
2018-08-27T11:54:27.096Z,21.9
2018-08-27T11:55:26.936Z,22
2018-08-27T11:56:26.058Z,22
2018-08-27T11:57:25.889Z,22.1
2018-08-27T11:58:25.017Z,22
2018-08-27T11:59:24.895Z,22
2018-08-27T12:00:24.340Z,22
2018-08-27T12:01:23.568Z,22
2018-08-27T12:02:22.906Z,22.1
2018-08-27T12:03:22.645Z,22.1
2018-08-27T12:04:21.879Z,22.1
2018-08-27T12:05:21.214Z,22.1
2018-08-27T12:06:21.047Z,22.1
2018-08-27T12:07:20.385Z,22.1
2018-08-27T12:08:19.504Z,22.1
2018-08-27T12:09:19.351Z,22.1
2018-08-27T12:10:18.469Z,22.1
2018-08-27T12:11:18.414Z,22.1
2018-08-27T12:11:48.953Z,22.1
2018-08-27T12:12:19.377Z,22.1
2018-08-27T12:13:17.202Z,22.1
2018-08-27T12:14:16.537Z,22.1
2018-08-27T12:15:15.868Z,22.1
2018-08-27T12:16:15.214Z,22.1
2018-08-27T12:16:45.905Z,22.1
2018-08-27T12:18:14.088Z,22.1
2018-08-27T12:20:13.212Z,22.1
2018-08-27T12:21:12.548Z,22.1
2018-08-27T12:22:11.782Z,22.1
2018-08-27T12:23:11.409Z,22.1
2018-08-27T12:24:10.849Z,22.2
2018-08-27T12:25:10.078Z,22.1
2018-08-27T12:26:09.698Z,22.2
2018-08-27T12:26:40.237Z,22.2
2018-08-27T12:27:10.568Z,22.2
2018-08-27T12:27:41.108Z,22.2
2018-08-27T12:28:11.653Z,22.2
2018-08-27T12:28:42.194Z,22.2
2018-08-27T12:30:07.803Z,22.2
2018-08-27T12:31:06.926Z,22.2
2018-08-27T12:32:05.949Z,22.3
2018-08-27T12:33:05.894Z,22.3
2018-08-27T12:34:05.230Z,22.3
2018-08-27T12:35:05.065Z,22.3
2018-08-27T12:37:03.680Z,22.4
2018-08-27T12:38:02.697Z,22.4
2018-08-27T12:39:02.219Z,22.4
2018-08-27T12:40:01.992Z,22.5
2018-08-27T12:41:02.247Z,22.5
2018-08-27T12:42:00.881Z,22.4
2018-08-27T12:43:00.217Z,22.5
2018-08-27T12:43:59.946Z,22.5
2018-08-27T12:44:59.283Z,22.5
2018-08-27T12:45:58.621Z,22.5
2018-08-27T12:46:58.461Z,22.5
2018-08-27T12:47:57.580Z,22.5
2018-08-27T12:48:56.951Z,22.4
2018-08-27T12:49:56.799Z,22.5
2018-08-27T12:50:56.767Z,22.5
2018-08-27T12:51:55.448Z,22.5
2018-08-27T12:52:54.672Z,22.5
2018-08-27T12:55:53.192Z,22.4
2018-08-27T12:56:52.815Z,22.4
2018-08-27T12:57:23.239Z,22.4
2018-08-27T12:57:53.782Z,22.3
2018-08-27T12:58:51.779Z,22.3
2018-08-27T12:59:21.753Z,22.3
2018-08-27T12:59:52.293Z,22.3
2018-08-27T13:00:23.042Z,22.3
2018-08-27T13:00:53.087Z,22.4
2018-08-27T13:01:23.837Z,22.4
2018-08-27T13:02:49.339Z,22.4
2018-08-27T13:03:49.076Z,22.4
2018-08-27T13:04:48.356Z,22.4
2018-08-27T13:05:48.374Z,22.4
2018-08-27T13:06:47.306Z,22.4
2018-08-27T13:07:46.912Z,22.4
2018-08-27T13:08:46.010Z,22.4
2018-08-27T13:09:16.554Z,22.4
2018-08-27T13:09:47.089Z,22.4
2018-08-27T13:10:17.844Z,22.4
2018-08-27T13:10:47.990Z,22.5
2018-08-27T13:11:18.835Z,22.5
2018-08-27T13:14:43.022Z,22.5
2018-08-27T13:17:41.017Z,22.4
2018-08-27T13:18:40.962Z,22.4
2018-08-27T13:19:40.411Z,22.5
2018-08-27T13:23:37.696Z,22.8
2018-08-27T13:24:37.547Z,22.8
2018-08-27T13:25:36.768Z,22.8
2018-08-27T13:27:35.783Z,22.6
2018-08-27T13:28:35.011Z,22.7
2018-08-27T13:30:34.994Z,22.8